createdAt,value
2023-01-04T00:00:21.081Z,98.10
2023-01-04T00:02:49.972Z,98.40
2023-01-04T00:05:18.851Z,98.00
2023-01-04T00:07:47.714Z,98.00
2023-01-04T00:10:16.450Z,98.20
2023-01-04T00:12:45.304Z,98.10
2023-01-04T00:15:14.050Z,98.00
2023-01-04T00:17:42.805Z,98.40
2023-01-04T00:20:11.953Z,98.70
2023-01-04T00:22:40.793Z,98.60
2023-01-04T00:25:10.149Z,98.60
2023-01-04T00:27:38.978Z,98.50
2023-01-04T00:30:08.194Z,98.50
2023-01-04T00:32:37.073Z,98.60
2023-01-04T00:35:06.059Z,98.00
2023-01-04T00:37:34.899Z,98.50
2023-01-04T00:40:04.470Z,98.00
2023-01-04T00:42:33.304Z,98.30
2023-01-04T00:45:02.123Z,98.40
2023-01-04T00:47:30.950Z,98.40
2023-01-04T00:50:00.390Z,98.40
2023-01-04T00:52:29.148Z,98.10
2023-01-04T00:54:57.934Z,98.20
2023-01-04T00:57:26.611Z,98.10
2023-01-04T00:59:55.820Z,98.10
2023-01-04T01:02:24.703Z,98.50
2023-01-04T01:04:53.562Z,97.80
2023-01-04T01:07:22.396Z,98.00
2023-01-04T01:09:51.229Z,97.80
2023-01-04T01:12:20.144Z,98.00
2023-01-04T01:14:48.958Z,97.40
2023-01-04T01:17:17.910Z,97.40
2023-01-04T01:19:46.717Z,97.30
2023-01-04T01:22:15.587Z,97.40
2023-01-04T01:24:44.344Z,97.30
2023-01-04T01:27:13.169Z,97.20
2023-01-04T01:29:41.892Z,96.90
2023-01-04T01:32:10.680Z,96.80
2023-01-04T01:34:39.723Z,97.10
2023-01-04T01:37:08.578Z,97.00
2023-01-04T01:39:37.611Z,96.90
2023-01-04T01:42:06.528Z,96.70
2023-01-04T01:44:55.558Z,96.50
2023-01-04T01:47:28.021Z,96.30
2023-01-04T01:49:57.715Z,96.40
2023-01-04T01:52:32.928Z,96.60
2023-01-04T01:55:06.135Z,96.50
2023-01-04T01:57:38.338Z,96.20
2023-01-04T02:00:13.530Z,96.10
2023-01-04T02:03:05.172Z,95.90
2023-01-04T02:05:36.835Z,95.90
2023-01-04T02:08:06.630Z,96.10
2023-01-04T02:10:38.576Z,96.20
2023-01-04T02:13:13.574Z,95.90
2023-01-04T02:15:49.972Z,95.50
2023-01-04T02:18:30.039Z,95.60
2023-01-04T02:21:05.683Z,95.50
2023-01-04T02:23:54.517Z,95.40
2023-01-04T02:26:43.476Z,95.80
2023-01-04T02:29:32.341Z,95.70
2023-01-04T02:32:07.739Z,95.70
2023-01-04T02:34:58.480Z,95.70
2023-01-04T02:37:47.855Z,95.70
2023-01-04T02:40:35.045Z,95.70
2023-01-04T02:43:26.793Z,95.90
2023-01-04T02:46:17.506Z,95.50
2023-01-04T02:49:06.030Z,95.30
2023-01-04T02:51:37.842Z,94.90
2023-01-04T02:54:15.317Z,95.00
2023-01-04T02:57:06.097Z,95.30
2023-01-04T02:59:58.789Z,94.60
2023-01-04T03:02:58.358Z,94.60
2023-01-04T03:05:58.264Z,94.80
2023-01-04T03:08:39.098Z,94.30
2023-01-04T03:11:30.627Z,94.40
2023-01-04T03:14:32.014Z,93.90
2023-01-04T03:16:55.600Z,94.20
2023-01-04T03:19:47.339Z,94.00
2023-01-04T03:22:39.338Z,93.90
2023-01-04T03:25:29.965Z,93.70
2023-01-04T03:28:21.186Z,94.20
2023-01-04T03:31:22.585Z,93.90
2023-01-04T03:34:11.216Z,94.10
2023-01-04T03:36:57.880Z,93.20
2023-01-04T03:39:42.158Z,92.90
2023-01-04T03:42:41.226Z,92.90
2023-01-04T03:45:40.646Z,93.40
2023-01-04T03:48:34.742Z,92.70
2023-01-04T03:51:05.554Z,93.00
2023-01-04T03:53:41.996Z,93.50
2023-01-04T03:56:13.951Z,92.80
2023-01-04T03:58:45.232Z,92.80
2023-01-04T04:01:16.837Z,92.50
2023-01-04T04:07:06.757Z,93.10
2023-01-04T04:09:36.287Z,92.00
2023-01-04T04:12:05.661Z,92.00
2023-01-04T04:14:34.664Z,91.40
2023-01-04T04:17:06.533Z,90.60
2023-01-04T04:19:37.917Z,90.50
2023-01-04T04:22:08.895Z,90.80
2023-01-04T04:24:38.063Z,90.80
2023-01-04T04:27:07.048Z,90.30
2023-01-04T04:29:36.124Z,90.40
2023-01-04T04:32:05.350Z,90.20
2023-01-04T04:34:39.736Z,90.10
2023-01-04T04:37:09.139Z,91.00
2023-01-04T04:39:38.035Z,90.40
2023-01-04T04:42:07.068Z,90.40
2023-01-04T04:44:37.035Z,90.30
2023-01-04T04:47:05.993Z,89.30
2023-01-04T04:49:35.288Z,90.70
2023-01-04T04:52:04.125Z,90.90
2023-01-04T04:54:32.982Z,90.40
2023-01-04T04:57:02.245Z,89.40
2023-01-04T04:59:31.247Z,88.90
2023-01-04T05:02:00.462Z,89.30
2023-01-04T05:04:30.490Z,88.60
2023-01-04T05:07:00.795Z,90.30
2023-01-04T05:09:29.566Z,88.40
2023-01-04T05:12:17.957Z,88.10
2023-01-04T05:14:46.623Z,88.40
2023-01-04T05:17:15.455Z,87.70
2023-01-04T05:19:44.390Z,87.90
2023-01-04T05:22:13.237Z,88.60
2023-01-04T05:24:41.949Z,87.10
2023-01-04T05:27:10.847Z,87.30
2023-01-04T05:29:59.345Z,87.40
2023-01-04T05:32:28.239Z,87.80
2023-01-04T05:34:57.007Z,87.10
2023-01-04T05:37:26.795Z,88.40
2023-01-04T05:39:55.629Z,87.00
2023-01-04T05:42:27.633Z,87.20
2023-01-04T05:44:57.973Z,87.10
2023-01-04T05:47:28.452Z,87.10
2023-01-04T05:49:57.517Z,87.70
2023-01-04T05:52:26.858Z,88.40
2023-01-04T05:54:55.816Z,87.00
2023-01-04T05:57:24.812Z,86.70
2023-01-04T05:59:53.718Z,89.80
2023-01-04T06:02:25.538Z,86.40
2023-01-04T06:04:58.770Z,86.60
2023-01-04T06:07:29.390Z,86.30
2023-01-04T06:10:01.264Z,86.90
2023-01-04T06:12:30.118Z,85.90
2023-01-04T06:14:58.838Z,85.90
2023-01-04T06:17:27.790Z,86.20
2023-01-04T06:19:56.679Z,85.40
2023-01-04T06:22:28.141Z,85.60
2023-01-04T06:24:57.030Z,86.80
2023-01-04T06:27:26.234Z,87.50
2023-01-04T06:29:55.413Z,86.60
2023-01-04T06:32:24.309Z,85.30
2023-01-04T06:34:53.247Z,86.40
2023-01-04T06:37:22.125Z,85.60
2023-01-04T06:39:50.830Z,85.00
2023-01-04T06:42:39.512Z,84.60
2023-01-04T06:45:08.738Z,85.20
2023-01-04T06:47:37.686Z,85.30
2023-01-04T06:50:33.537Z,85.20
2023-01-04T06:53:03.087Z,85.70
2023-01-04T06:55:38.177Z,84.80
2023-01-04T06:58:16.531Z,84.80
2023-01-04T07:00:45.295Z,84.40
2023-01-04T07:03:16.194Z,84.50
2023-01-04T07:05:45.933Z,85.20
2023-01-04T07:08:29.592Z,83.70
2023-01-04T07:10:58.504Z,84.80
2023-01-04T07:13:30.016Z,84.20
2023-01-04T07:15:58.967Z,84.20
2023-01-04T07:18:27.975Z,87.20
2023-01-04T07:20:56.872Z,84.30
2023-01-04T07:23:25.913Z,85.50
2023-01-04T07:25:54.928Z,85.20
2023-01-04T07:28:43.322Z,87.10
2023-01-04T07:31:12.164Z,85.30
2023-01-04T07:33:41.211Z,84.50
2023-01-04T07:36:10.455Z,84.00
2023-01-04T07:38:52.910Z,83.90
2023-01-04T07:41:21.767Z,83.60
2023-01-04T07:43:50.709Z,83.70
2023-01-04T07:46:19.536Z,83.90
2023-01-04T07:48:48.350Z,83.60
2023-01-04T07:51:17.402Z,83.70
2023-01-04T07:53:46.481Z,84.80
2023-01-04T07:56:18.720Z,83.70
2023-01-04T07:58:47.945Z,85.40
2023-01-04T08:01:20.579Z,85.30
2023-01-04T08:03:49.898Z,84.50
2023-01-04T08:06:19.818Z,84.50
2023-01-04T08:08:49.031Z,83.80
2023-01-04T08:11:20.552Z,85.10
2023-01-04T08:13:49.890Z,85.40
2023-01-04T08:16:36.876Z,86.60
2023-01-04T08:19:19.011Z,85.90
2023-01-04T08:21:48.702Z,86.90
2023-01-04T08:24:21.125Z,87.30
2023-01-04T08:26:49.984Z,86.60
2023-01-04T08:29:19.251Z,84.90
2023-01-04T08:31:51.193Z,84.10
2023-01-04T08:34:20.194Z,84.00
2023-01-04T08:36:51.796Z,85.30
2023-01-04T08:39:22.700Z,84.90
2023-01-04T08:42:06.100Z,85.00
2023-01-04T08:44:36.793Z,84.70
2023-01-04T08:47:06.196Z,84.90
2023-01-04T08:49:35.506Z,87.00
2023-01-04T08:52:04.661Z,86.80
2023-01-04T08:54:34.596Z,86.50
2023-01-04T08:57:03.706Z,86.90
2023-01-04T08:59:32.645Z,87.00
2023-01-04T09:02:05.266Z,84.30
2023-01-04T09:04:34.857Z,85.80
2023-01-04T09:07:04.345Z,84.60
2023-01-04T09:09:33.349Z,85.80
2023-01-04T09:12:02.107Z,85.40
2023-01-04T09:14:31.007Z,86.10
2023-01-04T09:17:02.804Z,85.70
2023-01-04T09:19:31.691Z,86.90
2023-01-04T09:22:00.809Z,85.30
2023-01-04T09:24:29.685Z,85.40
2023-01-04T09:26:58.638Z,85.50
2023-01-04T09:29:28.555Z,85.90
2023-01-04T09:31:57.419Z,86.30
2023-01-04T09:34:26.395Z,86.60
2023-01-04T09:36:55.292Z,87.00
2023-01-04T09:39:25.210Z,87.00
2023-01-04T09:41:59.827Z,87.30
2023-01-04T09:48:13.408Z,87.50
2023-01-04T09:51:07.161Z,87.70
2023-01-04T09:53:43.402Z,88.20
2023-01-04T09:56:16.898Z,88.10
2023-01-04T09:58:45.911Z,87.80
2023-01-04T10:01:29.472Z,88.10
2023-01-04T10:04:32.708Z,88.30
2023-01-04T10:07:05.196Z,88.20
2023-01-04T10:09:35.187Z,88.30
2023-01-04T10:12:20.022Z,88.10
2023-01-04T10:15:00.152Z,88.10
2023-01-04T10:21:30.056Z,88.30
2023-01-04T10:24:23.283Z,88.40
2023-01-04T10:26:57.182Z,88.40
2023-01-04T10:30:05.131Z,88.40
2023-01-04T10:32:40.547Z,88.40
2023-01-04T10:35:20.660Z,88.80
2023-01-04T10:37:55.348Z,88.60
2023-01-04T10:40:24.888Z,88.70
2023-01-04T10:43:03.956Z,88.80
2023-01-04T10:45:53.809Z,89.00
2023-01-04T10:48:27.108Z,89.20
2023-01-04T10:51:05.013Z,89.30
2023-01-04T10:53:45.737Z,89.30
2023-01-04T10:56:37.780Z,89.50
2023-01-04T10:59:20.499Z,90.20
2023-01-04T11:01:58.463Z,90.20
2023-01-04T11:04:35.411Z,90.40
2023-01-04T11:07:14.230Z,90.70
2023-01-04T11:10:07.754Z,90.70
2023-01-04T11:12:36.661Z,91.00
2023-01-04T11:15:06.211Z,91.20
2023-01-04T11:17:36.929Z,91.50
2023-01-04T11:20:06.497Z,91.60
2023-01-04T11:22:45.605Z,91.60
2023-01-04T11:25:36.151Z,91.80
2023-01-04T11:28:30.863Z,91.80
2023-01-04T11:31:30.067Z,92.00
2023-01-04T11:34:01.741Z,92.00
2023-01-04T11:36:37.058Z,92.10
2023-01-04T11:39:12.465Z,92.20
2023-01-04T11:41:41.277Z,92.20
2023-01-04T11:44:20.410Z,92.40
2023-01-04T11:47:05.990Z,92.60
2023-01-04T11:49:38.597Z,92.60
2023-01-04T11:52:09.654Z,92.70
2023-01-04T11:54:38.432Z,92.60
2023-01-04T11:57:18.979Z,92.80
2023-01-04T12:00:07.442Z,92.90
2023-01-04T12:03:00.241Z,92.90
2023-01-04T12:05:30.202Z,92.90
2023-01-04T12:08:00.284Z,93.00
2023-01-04T12:10:30.078Z,92.80
2023-01-04T12:13:01.729Z,93.00
2023-01-04T12:15:51.694Z,92.90
2023-01-04T12:18:27.929Z,93.20
2023-01-04T12:20:58.548Z,92.80
2023-01-04T12:23:27.496Z,93.00
2023-01-04T12:25:57.301Z,93.00
2023-01-04T12:28:36.976Z,93.20
2023-01-04T12:31:22.489Z,93.40
2023-01-04T12:33:53.463Z,93.70
2023-01-04T12:36:44.127Z,93.40
2023-01-04T12:39:17.391Z,93.90
2023-01-04T12:42:01.568Z,93.60
2023-01-04T12:44:52.875Z,93.70
2023-01-04T12:47:42.091Z,93.70
2023-01-04T12:50:14.572Z,93.60
2023-01-04T12:55:44.540Z,93.80
2023-01-04T13:01:26.628Z,93.80
2023-01-04T13:04:04.985Z,94.00
2023-01-04T13:06:44.275Z,93.90
2023-01-04T13:09:24.505Z,94.00
2023-01-04T13:12:13.979Z,94.10
2023-01-04T13:14:51.662Z,94.30
2023-01-04T13:17:23.790Z,94.10
2023-01-04T13:19:53.261Z,94.30
2023-01-04T13:22:29.887Z,94.40
2023-01-04T13:25:01.318Z,94.40
2023-01-04T13:27:30.271Z,94.40
2023-01-04T13:29:59.061Z,94.40
2023-01-04T13:32:33.507Z,94.30
2023-01-04T13:35:15.316Z,94.30
2023-01-04T13:37:49.830Z,94.10
2023-01-04T13:40:40.726Z,94.40
2023-01-04T13:43:31.572Z,94.30
2023-01-04T13:46:22.355Z,94.20
2023-01-04T13:48:54.342Z,94.10
2023-01-04T13:51:36.170Z,94.10
2023-01-04T13:54:08.618Z,94.00
2023-01-04T13:56:37.750Z,94.00
2023-01-04T13:59:06.592Z,94.00
2023-01-04T14:01:42.392Z,94.00
2023-01-04T14:04:34.815Z,94.20
2023-01-04T14:07:04.235Z,94.50
2023-01-04T14:09:38.024Z,94.60
2023-01-04T14:12:16.173Z,94.70
2023-01-04T14:15:15.618Z,94.80
2023-01-04T14:17:53.532Z,94.90
2023-01-04T14:20:24.467Z,94.90
2023-01-04T14:22:54.769Z,94.80
2023-01-04T14:25:41.739Z,94.80
2023-01-04T14:28:29.793Z,95.00
2023-01-04T14:31:04.645Z,95.30
2023-01-04T14:33:40.408Z,95.30
2023-01-04T14:36:11.292Z,95.30
2023-01-04T14:38:56.784Z,95.30
2023-01-04T14:41:43.406Z,95.30
2023-01-04T14:44:19.709Z,95.40
2023-01-04T14:46:54.730Z,95.30
2023-01-04T14:49:24.373Z,95.50
2023-01-04T14:51:58.988Z,95.30
2023-01-04T14:54:30.198Z,95.20
2023-01-04T14:57:00.370Z,95.20
2023-01-04T14:59:29.856Z,95.10
2023-01-04T15:01:59.636Z,95.00
2023-01-04T15:04:28.694Z,94.90
2023-01-04T15:07:01.030Z,94.90
2023-01-04T15:09:30.730Z,94.80
2023-01-04T15:11:59.582Z,94.70
2023-01-04T15:14:28.657Z,94.80
2023-01-04T15:16:57.722Z,94.70
2023-01-04T15:19:26.644Z,95.00
2023-01-04T15:21:55.439Z,94.50
2023-01-04T15:24:24.284Z,94.60
2023-01-04T15:26:53.203Z,94.60
2023-01-04T15:29:22.067Z,94.60
2023-01-04T15:31:50.906Z,94.60
2023-01-04T15:34:19.955Z,94.50
2023-01-04T15:36:51.746Z,94.50
2023-01-04T15:39:20.719Z,94.50
2023-01-04T15:42:09.100Z,94.60
2023-01-04T15:44:38.506Z,94.70
2023-01-04T15:47:07.394Z,94.70
2023-01-04T15:49:36.420Z,94.70
2023-01-04T15:52:05.449Z,94.70
2023-01-04T15:54:34.286Z,94.80
2023-01-04T15:57:03.095Z,94.70
2023-01-04T15:59:31.958Z,94.80
2023-01-04T16:02:00.850Z,94.80
2023-01-04T16:04:30.510Z,94.80
2023-01-04T16:06:59.555Z,94.80
2023-01-04T16:09:28.506Z,94.80
2023-01-04T16:12:16.981Z,94.80
2023-01-04T16:14:45.703Z,94.80
2023-01-04T16:17:14.456Z,94.90
2023-01-04T16:19:43.230Z,94.90
2023-01-04T16:22:12.151Z,94.70
2023-01-04T16:27:34.974Z,94.80
2023-01-04T16:30:05.578Z,94.80
2023-01-04T16:32:34.504Z,94.90
2023-01-04T16:35:03.267Z,94.90
2023-01-04T16:37:31.983Z,95.00
2023-01-04T16:40:08.956Z,95.10
2023-01-04T16:42:39.065Z,95.30
2023-01-04T16:45:08.573Z,95.30
2023-01-04T16:47:42.127Z,95.30
2023-01-04T16:50:13.343Z,95.40
2023-01-04T16:52:42.595Z,95.40
2023-01-04T16:55:12.019Z,95.70
2023-01-04T16:57:40.925Z,95.80
2023-01-04T17:03:41.722Z,95.70
2023-01-04T17:06:16.720Z,95.40
2023-01-04T17:08:46.656Z,95.50
2023-01-04T17:12:04.902Z,95.40
2023-01-04T17:14:09.863Z,95.40
2023-01-04T17:16:38.825Z,95.30
2023-01-04T17:19:07.675Z,95.20
2023-01-04T17:21:36.510Z,95.50
2023-01-04T17:24:05.787Z,95.30
2023-01-04T17:26:34.925Z,95.30
2023-01-04T17:29:04.178Z,95.20
2023-01-04T17:31:36.552Z,95.20
2023-01-04T17:34:05.625Z,95.20
2023-01-04T17:36:34.752Z,95.10
2023-01-04T17:39:03.796Z,95.20
2023-01-04T17:41:33.309Z,95.50
2023-01-04T17:44:05.221Z,95.60
2023-01-04T17:46:36.468Z,95.50
2023-01-04T17:49:27.994Z,95.30
2023-01-04T17:51:58.305Z,95.50
2023-01-04T17:54:28.053Z,95.50
2023-01-04T17:56:56.801Z,95.40
2023-01-04T17:59:25.600Z,95.30
2023-01-04T18:01:54.621Z,95.50
2023-01-04T18:04:23.430Z,95.50
2023-01-04T18:06:52.158Z,95.50
2023-01-04T18:09:24.531Z,95.50
2023-01-04T18:11:53.412Z,95.50
2023-01-04T18:14:23.496Z,95.80
2023-01-04T18:16:59.561Z,95.50
2023-01-04T18:19:31.361Z,95.40
2023-01-04T18:22:00.754Z,95.60
2023-01-04T18:40:29.267Z,95.60
2023-01-04T18:42:58.058Z,95.60
2023-01-04T18:45:26.854Z,95.70
2023-01-04T18:47:55.723Z,95.70
2023-01-04T18:50:24.623Z,95.80
2023-01-04T18:52:53.399Z,96.00
2023-01-04T18:55:22.326Z,95.90
2023-01-04T18:57:51.132Z,96.00
2023-01-04T19:00:20.120Z,96.10
2023-01-04T19:02:49.117Z,96.10
2023-01-04T19:05:20.086Z,96.20
2023-01-04T19:07:48.935Z,96.20
2023-01-04T19:10:18.385Z,96.30
2023-01-04T19:12:47.310Z,96.30
2023-01-04T19:15:16.452Z,96.30
2023-01-04T19:17:45.266Z,96.50
2023-01-04T19:20:15.292Z,96.50
2023-01-04T19:22:44.229Z,96.40
2023-01-04T19:25:12.901Z,96.30
2023-01-04T19:27:41.770Z,96.30
2023-01-04T19:30:11.424Z,96.30
2023-01-04T19:32:40.264Z,96.50
2023-01-04T19:35:09.502Z,96.30
2023-01-04T19:37:38.284Z,96.20
2023-01-04T19:40:07.588Z,96.20
2023-01-04T19:42:36.332Z,96.20
2023-01-04T19:45:05.322Z,96.10
2023-01-04T19:47:34.044Z,96.10
2023-01-04T19:50:02.959Z,96.20
2023-01-04T19:52:35.304Z,96.20
2023-01-04T19:55:04.472Z,96.50
2023-01-04T19:57:34.017Z,96.40
2023-01-04T20:00:03.068Z,96.50
2023-01-04T20:02:32.047Z,96.30
2023-01-04T20:05:01.151Z,96.50
2023-01-04T20:07:30.030Z,96.50
2023-01-04T20:09:58.780Z,96.40
2023-01-04T20:12:27.800Z,96.40
2023-01-04T20:14:56.614Z,96.50
2023-01-04T20:17:25.430Z,96.50
2023-01-04T20:19:54.206Z,96.60
2023-01-04T20:22:23.065Z,96.70
2023-01-04T20:24:52.809Z,96.70
2023-01-04T20:27:21.632Z,96.60
2023-01-04T20:29:50.556Z,96.60
2023-01-04T20:32:19.989Z,96.70
2023-01-04T20:34:48.855Z,96.90
2023-01-04T20:37:17.694Z,96.90
2023-01-04T20:39:46.564Z,96.80
2023-01-04T20:42:35.094Z,96.80
2023-01-04T20:45:04.180Z,97.20
2023-01-04T20:47:32.914Z,97.10
2023-01-04T20:50:01.814Z,97.50
2023-01-04T20:52:30.632Z,97.10
2023-01-04T20:54:59.464Z,96.90
2023-01-04T20:57:28.391Z,97.00
2023-01-04T20:59:57.214Z,96.90
2023-01-04T21:02:26.233Z,97.10
2023-01-04T21:04:55.107Z,96.90
2023-01-04T21:07:23.932Z,97.40
2023-01-04T21:09:52.687Z,97.30
2023-01-04T21:12:21.626Z,97.50
2023-01-04T21:14:50.400Z,97.40
2023-01-04T21:17:19.202Z,97.50
2023-01-04T21:19:48.128Z,97.40
2023-01-04T21:22:17.007Z,97.30
2023-01-04T21:24:46.251Z,97.20
2023-01-04T21:27:15.334Z,97.70
2023-01-04T21:29:44.222Z,97.70
2023-01-04T21:32:12.999Z,98.00
2023-01-04T21:34:41.787Z,98.00
2023-01-04T21:37:10.612Z,97.80
2023-01-04T21:39:39.380Z,97.90
2023-01-04T21:42:08.193Z,97.80
2023-01-04T21:44:37.131Z,97.50
2023-01-04T21:47:06.010Z,97.50
2023-01-04T21:49:34.836Z,97.30
2023-01-04T21:52:03.783Z,97.80
2023-01-04T21:54:32.575Z,98.00
2023-01-04T21:57:01.360Z,98.40
2023-01-04T21:59:33.392Z,98.50
2023-01-04T22:02:02.890Z,98.50
2023-01-04T22:04:32.176Z,98.40
2023-01-04T22:07:01.129Z,98.20
2023-01-04T22:09:29.896Z,98.30
2023-01-04T22:11:58.728Z,98.70
2023-01-04T22:14:27.733Z,98.40
2023-01-04T22:16:56.548Z,98.40
2023-01-04T22:19:25.656Z,98.10
2023-01-04T22:21:54.505Z,99.00
2023-01-04T22:24:23.409Z,98.90
2023-01-04T22:26:54.450Z,98.60
2023-01-04T22:29:23.571Z,98.30
2023-01-04T22:31:53.182Z,98.10
2023-01-04T22:34:22.038Z,98.30
2023-01-04T22:36:50.740Z,97.90
2023-01-04T22:39:19.677Z,98.30
2023-01-04T22:41:48.528Z,98.10
2023-01-04T22:44:17.383Z,98.20
2023-01-04T22:46:46.481Z,97.90
2023-01-04T22:49:15.401Z,98.00
2023-01-04T22:51:44.281Z,97.80
2023-01-04T22:54:13.224Z,98.00
2023-01-04T22:56:42.092Z,98.10
2023-01-04T22:59:11.419Z,97.90
2023-01-04T23:01:40.344Z,98.10
2023-01-04T23:04:11.584Z,98.10
2023-01-04T23:06:40.492Z,97.70
2023-01-04T23:09:09.820Z,97.80
2023-01-04T23:11:39.508Z,97.80
2023-01-04T23:14:10.520Z,97.80
2023-01-04T23:16:39.496Z,97.70
2023-01-04T23:19:09.036Z,97.60
2023-01-04T23:21:38.102Z,97.70
2023-01-04T23:24:07.540Z,97.50
2023-01-04T23:26:36.724Z,97.60
2023-01-04T23:29:05.696Z,97.70
2023-01-04T23:31:35.439Z,97.70
2023-01-04T23:34:06.281Z,97.70
2023-01-04T23:36:38.507Z,97.80
2023-01-04T23:39:10.355Z,98.00
2023-01-04T23:41:46.593Z,97.80
2023-01-04T23:46:58.138Z,99.00
2023-01-04T23:49:28.476Z,98.50
2023-01-04T23:51:57.931Z,98.30
2023-01-04T23:54:27.806Z,98.20
2023-01-04T23:56:56.841Z,98.20
2023-01-04T23:59:26.815Z,98.30
